createdAt,value
2022-10-05T00:00:31.683Z,13.57
2022-10-05T00:02:53.923Z,12.73
2022-10-05T00:04:56.631Z,12.73
2022-10-05T00:07:02.455Z,12.88
2022-10-05T00:09:10.693Z,13.38
2022-10-05T00:11:13.215Z,13.18
2022-10-05T00:13:15.882Z,13.85
2022-10-05T00:15:18.643Z,13.60
2022-10-05T00:19:25.404Z,12.95
2022-10-05T00:21:28.921Z,14.23
2022-10-05T00:23:31.630Z,13.13
2022-10-05T00:25:33.156Z,13.05
2022-10-05T00:27:39.493Z,11.98
2022-10-05T00:29:41.236Z,12.70
2022-10-05T00:31:42.849Z,12.57
2022-10-05T00:33:44.495Z,13.13
2022-10-05T00:35:46.356Z,13.55
2022-10-05T00:37:52.832Z,13.68
2022-10-05T00:39:54.422Z,14.15
2022-10-05T00:41:56.132Z,13.30
2022-10-05T00:44:00.732Z,13.38
2022-10-05T00:46:07.904Z,13.23
2022-10-05T00:48:17.499Z,12.90
2022-10-05T00:50:37.471Z,12.85
2022-10-05T00:52:55.708Z,12.52
2022-10-05T00:55:10.711Z,12.75
2022-10-05T00:57:15.117Z,12.52
2022-10-05T00:59:36.899Z,12.48
2022-10-05T01:01:57.532Z,12.57
2022-10-05T01:04:14.087Z,11.65
2022-10-05T01:06:18.349Z,13.00
2022-10-05T01:08:38.496Z,11.75
2022-10-05T01:10:50.594Z,12.20
2022-10-05T01:13:11.119Z,12.88
2022-10-05T01:15:12.829Z,12.75
2022-10-05T01:17:17.091Z,12.85
2022-10-05T01:19:27.847Z,12.50
2022-10-05T01:21:31.967Z,13.00
2022-10-05T01:24:09.269Z,13.10
2022-10-05T01:26:34.511Z,11.88
2022-10-05T01:28:45.437Z,12.07
2022-10-05T01:30:56.858Z,12.80
2022-10-05T01:33:13.666Z,12.65
2022-10-05T01:35:15.503Z,12.80
2022-10-05T01:37:25.429Z,13.18
2022-10-05T01:39:37.771Z,12.07
2022-10-05T01:41:54.248Z,12.27
2022-10-05T01:44:02.467Z,13.13
2022-10-05T01:46:15.049Z,11.93
2022-10-05T01:48:16.773Z,12.82
2022-10-05T01:50:33.235Z,11.68
2022-10-05T01:52:53.511Z,12.15
2022-10-05T01:55:00.879Z,12.98
2022-10-05T01:57:17.564Z,12.18
2022-10-05T01:59:26.838Z,12.60
2022-10-05T02:01:28.682Z,12.32
2022-10-05T02:03:33.255Z,11.73
2022-10-05T02:05:41.074Z,12.60
2022-10-05T02:07:49.409Z,13.15
2022-10-05T02:09:55.391Z,13.35
2022-10-05T02:12:00.005Z,12.82
2022-10-05T02:14:22.497Z,11.90
2022-10-05T02:16:42.374Z,13.25
2022-10-05T02:18:48.459Z,13.30
2022-10-05T02:20:51.472Z,14.38
2022-10-05T02:22:54.647Z,14.10
2022-10-05T02:25:01.351Z,14.20
2022-10-05T02:27:03.807Z,15.75
2022-10-05T02:29:10.348Z,15.95
2022-10-05T02:31:14.179Z,15.07
2022-10-05T02:33:23.444Z,14.98
2022-10-05T02:35:25.623Z,15.00
2022-10-05T02:37:27.186Z,14.57
2022-10-05T02:39:45.367Z,15.15
2022-10-05T02:41:47.490Z,14.45
2022-10-05T02:43:53.616Z,15.37
2022-10-05T02:46:08.119Z,14.68
2022-10-05T02:48:09.653Z,13.85
2022-10-05T02:50:29.521Z,13.38
2022-10-05T02:52:57.826Z,13.40
2022-10-05T02:55:00.664Z,12.82
2022-10-05T02:57:21.139Z,13.43
2022-10-05T02:59:52.321Z,13.23
2022-10-05T03:02:01.953Z,12.48
2022-10-05T03:04:18.854Z,12.10
2022-10-05T03:06:22.608Z,12.70
2022-10-05T03:08:24.909Z,13.55
2022-10-05T03:10:45.527Z,13.70
2022-10-05T03:13:09.598Z,13.00
2022-10-05T03:15:29.630Z,12.88
2022-10-05T03:17:37.511Z,12.30
2022-10-05T03:19:45.232Z,13.50
2022-10-05T03:22:00.720Z,13.13
2022-10-05T03:24:05.093Z,13.60
2022-10-05T03:26:33.283Z,13.48
2022-10-05T03:28:43.899Z,13.50
2022-10-05T03:30:54.737Z,13.50
2022-10-05T03:33:22.948Z,14.05
2022-10-05T03:35:43.473Z,14.25
2022-10-05T03:37:57.187Z,14.23
2022-10-05T03:40:05.910Z,13.90
2022-10-05T03:42:18.168Z,14.93
2022-10-05T03:44:19.670Z,15.68
2022-10-05T03:46:30.549Z,14.82
2022-10-05T03:48:34.960Z,14.48
2022-10-05T03:50:36.481Z,14.80
2022-10-05T03:52:41.246Z,14.05
2022-10-05T03:55:02.298Z,15.00
2022-10-05T03:57:06.805Z,14.95
2022-10-05T03:59:22.933Z,15.13
2022-10-05T04:01:27.441Z,15.43
2022-10-05T04:03:32.718Z,15.10
2022-10-05T04:05:42.383Z,13.98
2022-10-05T04:07:56.676Z,14.32
2022-10-05T04:10:00.510Z,13.93
2022-10-05T04:12:15.288Z,14.27
2022-10-05T04:14:25.660Z,14.85
2022-10-05T04:16:47.304Z,14.07
2022-10-05T04:19:02.466Z,13.32
2022-10-05T04:21:10.534Z,13.65
2022-10-05T04:23:14.928Z,13.43
2022-10-05T04:25:18.455Z,13.57
2022-10-05T04:29:21.341Z,14.77
2022-10-05T04:31:55.618Z,14.18
2022-10-05T04:36:11.183Z,13.63
2022-10-05T04:38:31.633Z,14.30
2022-10-05T04:40:48.295Z,14.23
2022-10-05T04:43:13.008Z,14.02
2022-10-05T04:45:21.406Z,13.32
2022-10-05T04:47:25.770Z,13.40
2022-10-05T04:49:45.811Z,13.20
2022-10-05T04:51:50.976Z,13.43
2022-10-05T04:53:52.887Z,13.80
2022-10-05T04:56:03.160Z,13.80
2022-10-05T04:58:07.834Z,13.35
2022-10-05T05:00:15.644Z,13.68
2022-10-05T05:02:24.331Z,14.00
2022-10-05T05:04:48.302Z,13.65
2022-10-05T05:07:05.210Z,13.23
2022-10-05T05:09:17.528Z,13.15
2022-10-05T05:11:24.517Z,13.27
2022-10-05T05:14:04.960Z,13.77
2022-10-05T05:16:06.547Z,13.43
2022-10-05T05:18:26.650Z,14.02
2022-10-05T05:20:40.275Z,13.88
2022-10-05T05:22:59.733Z,13.50
2022-10-05T05:25:20.121Z,12.73
2022-10-05T05:27:40.599Z,13.68
2022-10-05T05:29:52.883Z,12.23
2022-10-05T05:32:00.942Z,12.27
2022-10-05T05:34:02.427Z,12.63
2022-10-05T05:36:25.615Z,12.65
2022-10-05T05:40:40.145Z,12.40
2022-10-05T05:42:47.689Z,12.95
2022-10-05T05:44:53.909Z,12.27
2022-10-05T05:47:05.023Z,13.30
2022-10-05T05:49:18.694Z,12.13
2022-10-05T05:51:25.451Z,13.57
2022-10-05T05:53:33.900Z,12.75
2022-10-05T05:55:39.487Z,12.98
2022-10-05T05:57:43.551Z,11.88
2022-10-05T06:00:05.563Z,11.85
2022-10-05T06:02:11.328Z,12.30
2022-10-05T06:04:15.739Z,13.23
2022-10-05T06:06:17.763Z,11.90
2022-10-05T06:08:34.654Z,11.63
2022-10-05T06:10:41.493Z,12.40
2022-10-05T06:12:45.422Z,11.48
2022-10-05T06:14:49.720Z,11.75
2022-10-05T06:17:14.787Z,11.90
2022-10-05T06:19:17.550Z,11.82
2022-10-05T06:21:37.687Z,12.38
2022-10-05T06:24:12.115Z,11.43
2022-10-05T06:26:39.608Z,12.63
2022-10-05T06:28:42.179Z,12.18
2022-10-05T06:31:02.643Z,11.38
2022-10-05T06:33:04.209Z,11.52
2022-10-05T06:35:05.912Z,11.63
2022-10-05T06:37:12.788Z,11.27
2022-10-05T06:39:17.337Z,11.45
2022-10-05T06:41:19.064Z,11.43
2022-10-05T06:43:39.195Z,10.35
2022-10-05T06:45:49.704Z,10.60
2022-10-05T06:47:52.038Z,12.13
2022-10-05T06:49:58.506Z,10.60
2022-10-05T06:52:03.452Z,11.05
2022-10-05T06:54:05.228Z,10.60
2022-10-05T06:56:06.740Z,10.90
2022-10-05T06:58:27.856Z,11.38
2022-10-05T07:00:34.850Z,11.35
2022-10-05T07:02:39.822Z,11.27
2022-10-05T07:05:04.499Z,10.85
2022-10-05T07:07:26.462Z,10.40
2022-10-05T07:09:35.655Z,11.05
2022-10-05T07:11:59.607Z,10.48
2022-10-05T07:14:02.743Z,10.20
2022-10-05T07:16:07.132Z,10.35
2022-10-05T07:18:26.801Z,10.82
2022-10-05T07:20:34.690Z,10.75
2022-10-05T07:22:48.551Z,10.68
2022-10-05T07:25:04.650Z,11.02
2022-10-05T07:27:12.647Z,11.25
2022-10-05T07:29:14.195Z,9.55
2022-10-05T07:31:21.833Z,10.32
2022-10-05T07:33:46.939Z,9.63
2022-10-05T07:36:20.562Z,8.85
2022-10-05T07:38:32.610Z,10.38
2022-10-05T07:40:37.973Z,10.23
2022-10-05T07:42:48.784Z,9.07
2022-10-05T07:44:55.713Z,9.75
2022-10-05T07:47:03.664Z,9.85
2022-10-05T07:49:11.302Z,9.00
2022-10-05T07:51:18.990Z,9.70
2022-10-05T07:53:35.379Z,9.70
2022-10-05T07:55:38.847Z,9.40
2022-10-05T07:57:46.552Z,9.40
2022-10-05T07:59:51.355Z,9.20
2022-10-05T08:01:55.449Z,9.30
2022-10-05T08:03:57.054Z,8.60
2022-10-05T08:06:00.138Z,8.40
2022-10-05T08:08:12.362Z,8.73
2022-10-05T08:10:26.127Z,8.02
2022-10-05T08:13:03.177Z,8.07
2022-10-05T08:15:13.355Z,8.35
2022-10-05T08:17:25.471Z,7.35
2022-10-05T08:19:39.602Z,7.97
2022-10-05T08:21:47.974Z,8.07
2022-10-05T08:24:04.124Z,8.02
2022-10-05T08:26:41.242Z,6.75
2022-10-05T08:28:47.567Z,7.57
2022-10-05T08:31:07.438Z,7.38
2022-10-05T08:33:15.844Z,7.53
2022-10-05T08:35:34.190Z,6.70
2022-10-05T08:37:39.394Z,7.68
2022-10-05T08:39:48.874Z,7.18
2022-10-05T08:41:53.192Z,7.25
2022-10-05T08:44:13.307Z,7.50
2022-10-05T08:46:30.550Z,7.22
2022-10-05T08:48:47.200Z,7.38
2022-10-05T08:51:07.536Z,6.75
2022-10-05T08:53:12.304Z,7.15
2022-10-05T08:55:16.848Z,7.30
2022-10-05T08:57:24.813Z,6.68
2022-10-05T08:59:45.460Z,7.03
2022-10-05T09:01:47.216Z,6.95
2022-10-05T09:03:55.163Z,7.00
2022-10-05T09:06:15.829Z,6.32
2022-10-05T09:08:36.007Z,6.00
2022-10-05T09:10:57.529Z,6.75
2022-10-05T09:12:59.306Z,6.82
2022-10-05T09:15:25.725Z,7.18
2022-10-05T09:17:28.328Z,7.30
2022-10-05T09:19:32.924Z,5.95
2022-10-05T09:21:43.319Z,6.32
2022-10-05T09:23:49.023Z,6.65
2022-10-05T09:26:14.314Z,6.43
2022-10-05T09:28:34.453Z,6.10
2022-10-05T09:30:38.857Z,6.75
2022-10-05T09:32:40.763Z,7.07
2022-10-05T09:34:55.686Z,6.20
2022-10-05T09:37:12.651Z,6.20
2022-10-05T09:39:29.724Z,6.13
2022-10-05T09:41:50.214Z,7.18
2022-10-05T09:44:15.764Z,6.60
2022-10-05T09:46:32.701Z,5.88
2022-10-05T09:48:40.435Z,6.22
2022-10-05T09:50:42.051Z,6.10
2022-10-05T09:53:02.280Z,5.57
2022-10-05T09:55:23.932Z,6.10
2022-10-05T09:57:25.492Z,5.40
2022-10-05T09:59:39.534Z,6.53
2022-10-05T10:01:59.699Z,6.05
2022-10-05T10:04:24.797Z,5.28
2022-10-05T10:06:46.486Z,6.22
2022-10-05T10:09:07.619Z,5.57
2022-10-05T10:11:15.224Z,5.00
2022-10-05T10:13:24.285Z,5.45
2022-10-05T10:15:34.696Z,5.10
2022-10-05T10:17:51.735Z,5.15
2022-10-05T10:20:01.082Z,5.00
2022-10-05T10:22:05.550Z,5.25
2022-10-05T10:24:14.718Z,4.85
2022-10-05T10:26:33.187Z,5.25
2022-10-05T10:28:53.597Z,5.05
2022-10-05T10:30:57.910Z,5.50
2022-10-05T10:32:59.660Z,5.65
2022-10-05T10:35:04.356Z,5.70
2022-10-05T10:37:06.141Z,5.47
2022-10-05T10:39:07.875Z,5.70
2022-10-05T10:41:26.324Z,4.93
2022-10-05T10:43:46.390Z,6.20
2022-10-05T10:46:14.555Z,5.50
2022-10-05T10:48:19.211Z,5.32
2022-10-05T10:50:23.990Z,5.45
2022-10-05T10:52:25.882Z,5.07
2022-10-05T10:54:42.687Z,6.00
2022-10-05T10:57:00.680Z,6.07
2022-10-05T10:59:02.673Z,5.28
2022-10-05T11:01:10.460Z,5.40
2022-10-05T11:03:23.950Z,5.68
2022-10-05T11:05:25.875Z,4.95
2022-10-05T11:07:39.552Z,5.07
2022-10-05T11:09:41.732Z,4.68
2022-10-05T11:11:53.316Z,5.18
2022-10-05T11:14:13.716Z,4.50
2022-10-05T11:16:27.225Z,5.18
2022-10-05T11:18:29.056Z,5.15
2022-10-05T11:20:49.143Z,4.85
2022-10-05T11:22:56.100Z,5.13
2022-10-05T11:25:07.044Z,4.90
2022-10-05T11:27:09.628Z,5.15
2022-10-05T11:29:13.960Z,5.22
2022-10-05T11:31:37.204Z,4.78
2022-10-05T11:33:57.598Z,4.93
2022-10-05T11:36:17.771Z,4.90
2022-10-05T11:38:23.879Z,4.60
2022-10-05T11:40:42.416Z,4.60
2022-10-05T11:42:44.251Z,4.90
2022-10-05T11:45:06.236Z,5.15
2022-10-05T11:47:16.889Z,4.57
2022-10-05T11:49:18.535Z,4.78
2022-10-05T11:51:35.372Z,4.20
2022-10-05T11:53:46.810Z,4.60
2022-10-05T11:56:04.126Z,4.50
2022-10-05T11:58:10.941Z,4.43
2022-10-05T12:00:16.100Z,4.55
2022-10-05T12:02:38.869Z,4.05
2022-10-05T12:04:49.455Z,4.53
2022-10-05T12:06:53.752Z,5.13
2022-10-05T12:09:13.396Z,5.10
2022-10-05T12:11:27.360Z,4.90
2022-10-05T12:13:52.187Z,4.63
2022-10-05T12:16:04.724Z,5.25
2022-10-05T12:18:21.302Z,5.50
2022-10-05T12:20:28.285Z,5.25
2022-10-05T12:22:41.883Z,5.00
2022-10-05T12:24:54.179Z,5.28
2022-10-05T12:26:59.246Z,5.30
2022-10-05T12:29:08.075Z,5.55
2022-10-05T12:31:10.539Z,5.57
2022-10-05T12:33:21.317Z,5.50
2022-10-05T12:35:47.411Z,6.30
2022-10-05T12:37:51.649Z,5.20
2022-10-05T12:40:22.756Z,6.25
2022-10-05T12:42:48.252Z,6.60
2022-10-05T12:45:08.855Z,6.65
2022-10-05T12:47:35.253Z,6.25
2022-10-05T12:49:55.002Z,5.90
2022-10-05T12:52:00.606Z,6.30
2022-10-05T12:54:16.571Z,6.18
2022-10-05T12:56:24.305Z,5.38
2022-10-05T12:58:33.683Z,6.47
2022-10-05T13:00:39.337Z,6.20
2022-10-05T13:02:51.294Z,6.18
2022-10-05T13:04:56.106Z,6.30
2022-10-05T13:06:57.619Z,6.90
2022-10-05T13:09:03.804Z,6.78
2022-10-05T13:11:14.846Z,6.55
2022-10-05T13:13:28.856Z,7.20
2022-10-05T13:15:30.467Z,6.50
2022-10-05T13:17:41.463Z,7.15
2022-10-05T13:19:47.643Z,6.78
2022-10-05T13:22:01.952Z,6.78
2022-10-05T13:24:07.025Z,6.50
2022-10-05T13:26:19.412Z,6.88
2022-10-05T13:28:21.655Z,5.80
2022-10-05T13:30:23.565Z,6.75
2022-10-05T13:32:27.143Z,7.00
2022-10-05T13:34:31.790Z,6.75
2022-10-05T13:36:45.911Z,7.43
2022-10-05T13:38:50.352Z,6.68
2022-10-05T13:41:03.322Z,6.85
2022-10-05T13:45:18.990Z,6.60
2022-10-05T13:47:39.571Z,7.15
2022-10-05T13:51:58.625Z,6.38
2022-10-05T13:54:00.132Z,6.70
2022-10-05T13:56:01.980Z,6.57
2022-10-05T13:58:15.461Z,6.55
2022-10-05T14:00:26.268Z,7.10
2022-10-05T14:02:33.764Z,7.18
2022-10-05T14:04:46.701Z,6.40
2022-10-05T14:06:48.782Z,7.07
2022-10-05T14:08:54.091Z,6.63
2022-10-05T14:10:58.105Z,6.95
2022-10-05T14:13:01.029Z,6.95
2022-10-05T14:15:15.783Z,6.85
2022-10-05T14:17:32.903Z,6.95
2022-10-05T14:19:48.585Z,7.25
2022-10-05T14:21:53.150Z,6.63
2022-10-05T14:23:58.677Z,7.35
2022-10-05T14:26:04.102Z,7.25
2022-10-05T14:28:12.402Z,6.90
2022-10-05T14:30:14.198Z,7.20
2022-10-05T14:32:18.860Z,7.18
2022-10-05T14:34:27.326Z,7.63
2022-10-05T14:36:33.650Z,8.35
2022-10-05T14:38:51.849Z,7.13
2022-10-05T14:41:25.414Z,7.85
2022-10-05T14:43:26.963Z,7.05
2022-10-05T14:45:30.118Z,7.82
2022-10-05T14:47:32.219Z,7.25
2022-10-05T14:49:36.988Z,7.43
2022-10-05T14:51:38.870Z,7.43
2022-10-05T14:53:43.720Z,7.47
2022-10-05T14:55:45.245Z,7.07
2022-10-05T14:57:46.898Z,7.57
2022-10-05T14:59:54.915Z,7.13
2022-10-05T15:01:59.107Z,7.50
2022-10-05T15:04:10.351Z,7.82
2022-10-05T15:06:30.694Z,7.95
2022-10-05T15:08:50.803Z,7.32
2022-10-05T15:10:55.951Z,8.30
2022-10-05T15:13:12.101Z,6.72
2022-10-05T15:15:37.040Z,7.57
2022-10-05T15:17:53.523Z,7.63
2022-10-05T15:19:58.358Z,7.47
2022-10-05T15:22:09.417Z,7.22
2022-10-05T15:24:40.126Z,7.47
2022-10-05T15:26:49.018Z,6.93
2022-10-05T15:28:54.356Z,6.75
2022-10-05T15:30:55.842Z,7.30
2022-10-05T15:33:09.250Z,6.40
2022-10-05T15:35:16.751Z,6.85
2022-10-05T15:37:18.357Z,6.45
2022-10-05T15:39:35.963Z,7.32
2022-10-05T15:41:47.725Z,6.47
2022-10-05T15:44:07.799Z,7.00
2022-10-05T15:46:18.266Z,7.20
2022-10-05T15:48:36.322Z,8.02
2022-10-05T15:50:45.665Z,7.38
2022-10-05T15:52:58.874Z,7.32
2022-10-05T15:55:08.041Z,8.07
2022-10-05T15:57:20.910Z,8.13
2022-10-05T15:59:38.583Z,7.20
2022-10-05T16:01:47.127Z,7.40
2022-10-05T16:03:51.161Z,7.82
2022-10-05T16:06:15.155Z,8.00
2022-10-05T16:08:41.287Z,7.53
2022-10-05T16:10:43.977Z,8.00
2022-10-05T16:12:45.823Z,7.85
2022-10-05T16:15:16.169Z,9.32
2022-10-05T16:17:29.749Z,8.90
2022-10-05T16:19:43.373Z,8.73
2022-10-05T16:23:47.384Z,8.30
2022-10-05T16:26:13.193Z,7.88
2022-10-05T16:28:15.703Z,8.40
2022-10-05T16:30:21.623Z,7.72
2022-10-05T16:32:30.276Z,8.73
2022-10-05T16:34:37.952Z,9.23
2022-10-05T16:37:02.668Z,8.95
2022-10-05T16:39:14.190Z,7.85
2022-10-05T16:41:23.871Z,8.70
2022-10-05T16:43:25.738Z,8.52
2022-10-05T16:45:44.665Z,8.67
2022-10-05T16:47:56.441Z,9.90
2022-10-05T16:50:16.745Z,9.20
2022-10-05T16:52:21.296Z,9.32
2022-10-05T16:54:35.832Z,10.13
2022-10-05T16:57:01.249Z,9.73
2022-10-05T16:59:04.177Z,9.60
2022-10-05T17:01:10.768Z,11.25
2022-10-05T17:03:27.402Z,10.48
2022-10-05T17:05:29.174Z,11.00
2022-10-05T17:07:40.858Z,10.45
2022-10-05T17:09:49.244Z,10.60
2022-10-05T17:11:57.316Z,10.50
2022-10-05T17:14:07.886Z,10.20
2022-10-05T17:16:28.262Z,10.77
2022-10-05T17:18:50.030Z,11.07
2022-10-05T17:21:10.748Z,10.93
2022-10-05T17:23:15.240Z,11.02
2022-10-05T17:25:24.477Z,10.00
2022-10-05T17:27:32.368Z,10.13
2022-10-05T17:29:43.115Z,10.80
2022-10-05T17:32:01.849Z,10.43
2022-10-05T17:34:10.446Z,10.60
2022-10-05T17:36:16.914Z,10.23
2022-10-05T17:38:40.537Z,10.45
2022-10-05T17:41:03.239Z,10.77
2022-10-05T17:43:17.116Z,10.73
2022-10-05T17:45:19.382Z,10.52
2022-10-05T17:47:42.041Z,10.20
2022-10-05T17:50:08.322Z,10.57
2022-10-05T17:52:41.084Z,10.95
2022-10-05T17:55:04.646Z,10.30
2022-10-05T17:59:09.038Z,10.57
2022-10-05T18:01:17.058Z,10.07
2022-10-05T18:03:39.187Z,10.32
2022-10-05T18:05:41.000Z,9.93
2022-10-05T18:07:48.692Z,10.40
2022-10-05T18:09:53.917Z,10.18
2022-10-05T18:11:55.756Z,10.00
2022-10-05T18:14:29.795Z,9.73
2022-10-05T18:16:50.188Z,9.98
2022-10-05T18:18:57.526Z,9.65
2022-10-05T18:21:22.731Z,9.27
2022-10-05T18:23:25.883Z,9.25
2022-10-05T18:25:49.249Z,11.85
2022-10-05T18:27:50.842Z,9.68
2022-10-05T18:30:11.066Z,9.45
2022-10-05T18:32:36.254Z,9.18
2022-10-05T18:34:49.318Z,9.65
2022-10-05T18:39:11.491Z,9.35
2022-10-05T18:41:15.907Z,9.57
2022-10-05T18:43:29.004Z,8.35
2022-10-05T18:47:37.439Z,8.57
2022-10-05T18:49:49.333Z,8.55
2022-10-05T18:51:54.927Z,8.73
2022-10-05T18:54:15.402Z,8.70
2022-10-05T18:56:30.029Z,8.15
2022-10-05T18:59:01.404Z,8.38
2022-10-05T19:01:21.657Z,9.50
2022-10-05T19:03:29.193Z,9.52
2022-10-05T19:05:49.801Z,8.65
2022-10-05T19:07:51.434Z,8.80
2022-10-05T19:10:03.570Z,11.68
2022-10-05T19:12:18.084Z,9.03
2022-10-05T19:14:27.004Z,9.13
2022-10-05T19:16:47.735Z,9.05
2022-10-05T19:18:59.902Z,8.35
2022-10-05T19:21:25.120Z,8.70
2022-10-05T19:23:47.078Z,9.57
2022-10-05T19:25:54.811Z,8.85
2022-10-05T19:28:17.671Z,9.77
2022-10-05T19:30:27.210Z,8.52
2022-10-05T19:32:52.735Z,8.80
2022-10-05T19:34:54.754Z,8.68
2022-10-05T19:36:58.240Z,8.75
2022-10-05T19:39:06.414Z,9.40
2022-10-05T19:41:17.099Z,8.70
2022-10-05T19:43:38.659Z,9.20
2022-10-05T19:45:52.426Z,8.63
2022-10-05T19:48:00.272Z,8.63
2022-10-05T19:50:05.955Z,9.00
2022-10-05T19:52:21.034Z,8.80
2022-10-05T19:54:26.797Z,8.38
2022-10-05T19:56:32.592Z,8.45
2022-10-05T19:58:38.531Z,8.45
2022-10-05T20:00:42.480Z,8.55
2022-10-05T20:02:44.038Z,9.68
2022-10-05T20:04:49.514Z,8.95
2022-10-05T20:06:51.426Z,8.75
2022-10-05T20:08:54.053Z,8.80
2022-10-05T20:11:05.074Z,8.27
2022-10-05T20:13:08.614Z,9.23
2022-10-05T20:15:35.779Z,8.95
2022-10-05T20:17:56.146Z,8.73
2022-10-05T20:20:23.393Z,8.63
2022-10-05T20:22:27.843Z,9.60
2022-10-05T20:24:31.831Z,8.95
2022-10-05T20:27:02.131Z,8.40
2022-10-05T20:29:03.854Z,8.73
2022-10-05T20:31:06.532Z,8.93
2022-10-05T20:33:14.533Z,9.23
2022-10-05T20:35:17.191Z,8.90
2022-10-05T20:37:18.931Z,8.02
2022-10-05T20:39:21.418Z,8.18
2022-10-05T20:41:22.948Z,8.50
2022-10-05T20:43:24.962Z,8.70
2022-10-05T20:45:26.507Z,8.90
2022-10-05T20:47:28.145Z,8.60
2022-10-05T20:49:36.550Z,9.68
2022-10-05T20:51:40.189Z,9.02
2022-10-05T20:53:41.746Z,8.70
2022-10-05T20:55:43.491Z,9.20
2022-10-05T20:57:46.373Z,8.48
2022-10-05T20:59:47.972Z,9.35
2022-10-05T21:01:49.763Z,8.77
2022-10-05T21:03:51.316Z,9.32
2022-10-05T21:05:52.834Z,9.27
2022-10-05T21:07:54.993Z,11.07
2022-10-05T21:10:00.678Z,8.82
2022-10-05T21:12:03.351Z,9.30
2022-10-05T21:14:05.921Z,9.40
2022-10-05T21:16:13.005Z,9.68
2022-10-05T21:18:15.682Z,9.82
2022-10-05T21:20:17.414Z,9.38
2022-10-05T21:22:19.015Z,9.15
2022-10-05T21:24:20.663Z,9.48
2022-10-05T21:26:22.476Z,9.75
2022-10-05T21:28:24.231Z,8.88
2022-10-05T21:30:26.086Z,9.55
2022-10-05T21:32:28.154Z,10.20
2022-10-05T21:34:29.709Z,10.05
2022-10-05T21:36:32.188Z,9.50
2022-10-05T21:38:33.963Z,9.45
2022-10-05T21:40:35.490Z,10.38
2022-10-05T21:42:37.147Z,10.35
2022-10-05T21:44:39.042Z,8.85
2022-10-05T21:46:40.964Z,10.10
2022-10-05T21:48:42.955Z,10.68
2022-10-05T21:50:45.466Z,15.00
2022-10-05T21:52:47.319Z,10.45
2022-10-05T21:54:49.198Z,10.80
2022-10-05T21:56:52.664Z,10.43
2022-10-05T22:00:55.766Z,10.18
2022-10-05T22:02:57.812Z,9.77
2022-10-05T22:04:59.311Z,10.20
2022-10-05T22:07:01.306Z,9.70
2022-10-05T22:09:03.962Z,10.52
2022-10-05T22:11:10.106Z,9.73
2022-10-05T22:13:11.872Z,9.50
2022-10-05T22:15:13.875Z,9.88
2022-10-05T22:17:22.990Z,9.60
2022-10-05T22:19:24.736Z,10.70
2022-10-05T22:21:26.470Z,10.55
2022-10-05T22:23:28.166Z,10.40
2022-10-05T22:25:33.791Z,10.55
2022-10-05T22:27:35.725Z,10.32
2022-10-05T22:29:37.388Z,10.23
2022-10-05T22:31:39.236Z,10.38
2022-10-05T22:33:41.299Z,10.23
2022-10-05T22:35:43.033Z,9.90
2022-10-05T22:37:44.994Z,10.75
2022-10-05T22:39:46.698Z,10.15
2022-10-05T22:41:48.688Z,11.13
2022-10-05T22:43:51.256Z,10.52
2022-10-05T22:45:53.281Z,10.40
2022-10-05T22:47:54.880Z,10.63
2022-10-05T22:49:56.444Z,10.02
2022-10-05T22:51:58.233Z,9.85
2022-10-05T22:53:59.742Z,10.13
2022-10-05T22:56:08.296Z,10.77
2022-10-05T22:58:10.045Z,10.60
2022-10-05T23:00:12.213Z,10.70
2022-10-05T23:02:14.086Z,10.25
2022-10-05T23:04:15.962Z,9.77
2022-10-05T23:06:18.583Z,9.93
2022-10-05T23:08:20.091Z,10.13
2022-10-05T23:10:21.918Z,11.27
2022-10-05T23:12:23.411Z,10.70
2022-10-05T23:14:24.950Z,10.32
2022-10-05T23:16:27.801Z,10.57
2022-10-05T23:18:29.818Z,10.85
2022-10-05T23:20:31.847Z,10.50
2022-10-05T23:22:37.252Z,10.13
2022-10-05T23:24:38.765Z,9.75
2022-10-05T23:26:40.298Z,10.77
2022-10-05T23:28:46.463Z,10.98
2022-10-05T23:30:48.122Z,10.68
2022-10-05T23:32:49.723Z,10.10
2022-10-05T23:34:51.467Z,9.95
2022-10-05T23:36:52.995Z,10.35
2022-10-05T23:38:54.675Z,10.00
2022-10-05T23:40:58.541Z,9.73
2022-10-05T23:43:00.813Z,9.15
2022-10-05T23:45:02.537Z,11.48
2022-10-05T23:47:04.369Z,10.25
2022-10-05T23:49:05.967Z,10.60
2022-10-05T23:51:10.100Z,9.82
2022-10-05T23:53:12.439Z,9.68
2022-10-05T23:55:14.019Z,9.95
2022-10-05T23:57:16.915Z,10.40
2022-10-05T23:59:18.606Z,10.35
